sensor_id;sensor_type;location;lat;lon;timestamp;P1;durP1;ratioP1;P2;durP2;ratioP2
69305;SDS011;56427;51.580;4.656;2024-01-30T00:01:54;14.77;;;9.57;;
69305;SDS011;56427;51.580;4.656;2024-01-30T00:04:20;15.60;;;8.87;;
69305;SDS011;56427;51.580;4.656;2024-01-30T00:06:45;13.70;;;9.93;;
69305;SDS011;56427;51.580;4.656;2024-01-30T00:09:11;16.75;;;10.25;;
69305;SDS011;56427;51.580;4.656;2024-01-30T00:11:37;13.77;;;8.97;;
69305;SDS011;56427;51.580;4.656;2024-01-30T00:14:05;15.50;;;8.90;;
69305;SDS011;56427;51.580;4.656;2024-01-30T00:16:31;17.65;;;9.65;;
69305;SDS011;56427;51.580;4.656;2024-01-30T00:18:56;15.80;;;8.97;;
69305;SDS011;56427;51.580;4.656;2024-01-30T00:21:22;18.43;;;9.60;;
69305;SDS011;56427;51.580;4.656;2024-01-30T00:23:48;16.35;;;9.38;;
69305;SDS011;56427;51.580;4.656;2024-01-30T00:26:14;17.58;;;9.48;;
69305;SDS011;56427;51.580;4.656;2024-01-30T00:28:40;17.33;;;9.53;;
69305;SDS011;56427;51.580;4.656;2024-01-30T00:31:06;18.80;;;10.30;;
69305;SDS011;56427;51.580;4.656;2024-01-30T00:33:32;15.55;;;9.52;;
69305;SDS011;56427;51.580;4.656;2024-01-30T00:35:57;18.53;;;10.03;;
69305;SDS011;56427;51.580;4.656;2024-01-30T00:38:23;16.53;;;9.27;;
69305;SDS011;56427;51.580;4.656;2024-01-30T00:40:48;20.43;;;9.83;;
69305;SDS011;56427;51.580;4.656;2024-01-30T00:43:14;13.45;;;8.95;;
69305;SDS011;56427;51.580;4.656;2024-01-30T00:45:40;15.88;;;9.45;;
69305;SDS011;56427;51.580;4.656;2024-01-30T00:48:06;15.55;;;9.13;;
69305;SDS011;56427;51.580;4.656;2024-01-30T00:50:32;14.87;;;8.77;;
69305;SDS011;56427;51.580;4.656;2024-01-30T00:52:57;13.27;;;8.40;;
69305;SDS011;56427;51.580;4.656;2024-01-30T00:55:23;14.23;;;8.50;;
69305;SDS011;56427;51.580;4.656;2024-01-30T00:57:48;12.97;;;8.20;;
69305;SDS011;56427;51.580;4.656;2024-01-30T01:00:14;14.07;;;8.75;;
69305;SDS011;56427;51.580;4.656;2024-01-30T01:02:42;13.63;;;8.10;;
69305;SDS011;56427;51.580;4.656;2024-01-30T01:05:08;13.13;;;7.93;;
69305;SDS011;56427;51.580;4.656;2024-01-30T01:07:33;15.55;;;8.38;;
69305;SDS011;56427;51.580;4.656;2024-01-30T01:09:59;14.07;;;8.80;;
69305;SDS011;56427;51.580;4.656;2024-01-30T01:12:25;16.10;;;9.20;;
69305;SDS011;56427;51.580;4.656;2024-01-30T01:14:50;15.70;;;8.38;;
69305;SDS011;56427;51.580;4.656;2024-01-30T01:17:15;14.10;;;8.10;;
69305;SDS011;56427;51.580;4.656;2024-01-30T01:19:41;14.27;;;8.57;;
69305;SDS011;56427;51.580;4.656;2024-01-30T01:22:06;13.30;;;8.17;;
69305;SDS011;56427;51.580;4.656;2024-01-30T01:24:31;14.20;;;8.17;;
69305;SDS011;56427;51.580;4.656;2024-01-30T01:27:00;16.10;;;7.93;;
69305;SDS011;56427;51.580;4.656;2024-01-30T01:29:25;13.38;;;7.72;;
69305;SDS011;56427;51.580;4.656;2024-01-30T01:31:54;11.23;;;7.30;;
69305;SDS011;56427;51.580;4.656;2024-01-30T01:34:21;13.65;;;8.02;;
69305;SDS011;56427;51.580;4.656;2024-01-30T01:36:46;13.55;;;8.02;;
69305;SDS011;56427;51.580;4.656;2024-01-30T01:39:12;15.37;;;7.93;;
69305;SDS011;56427;51.580;4.656;2024-01-30T01:41:37;11.53;;;7.30;;
69305;SDS011;56427;51.580;4.656;2024-01-30T01:44:03;14.40;;;8.60;;
69305;SDS011;56427;51.580;4.656;2024-01-30T01:46:30;16.92;;;8.65;;
69305;SDS011;56427;51.580;4.656;2024-01-30T01:48:57;14.40;;;7.32;;
69305;SDS011;56427;51.580;4.656;2024-01-30T01:51:23;14.27;;;7.75;;
69305;SDS011;56427;51.580;4.656;2024-01-30T01:53:51;14.50;;;8.20;;
69305;SDS011;56427;51.580;4.656;2024-01-30T01:56:16;14.27;;;8.13;;
69305;SDS011;56427;51.580;4.656;2024-01-30T01:58:42;14.10;;;7.93;;
69305;SDS011;56427;51.580;4.656;2024-01-30T02:01:13;13.73;;;7.85;;
69305;SDS011;56427;51.580;4.656;2024-01-30T02:03:41;15.00;;;8.50;;
69305;SDS011;56427;51.580;4.656;2024-01-30T02:06:07;13.13;;;8.10;;
69305;SDS011;56427;51.580;4.656;2024-01-30T02:08:32;14.27;;;8.63;;
69305;SDS011;56427;51.580;4.656;2024-01-30T02:10:58;15.20;;;9.10;;
69305;SDS011;56427;51.580;4.656;2024-01-30T02:13:24;13.23;;;7.97;;
69305;SDS011;56427;51.580;4.656;2024-01-30T02:15:50;13.15;;;8.32;;
69305;SDS011;56427;51.580;4.656;2024-01-30T02:18:16;13.02;;;7.57;;
69305;SDS011;56427;51.580;4.656;2024-01-30T02:20:42;12.70;;;8.38;;
69305;SDS011;56427;51.580;4.656;2024-01-30T02:23:09;16.27;;;7.80;;
69305;SDS011;56427;51.580;4.656;2024-01-30T02:25:39;14.35;;;8.10;;
69305;SDS011;56427;51.580;4.656;2024-01-30T02:28:14;12.20;;;7.88;;
69305;SDS011;56427;51.580;4.656;2024-01-30T02:30:39;16.15;;;8.20;;
69305;SDS011;56427;51.580;4.656;2024-01-30T02:33:05;14.20;;;7.93;;
69305;SDS011;56427;51.580;4.656;2024-01-30T02:35:31;13.48;;;8.35;;
69305;SDS011;56427;51.580;4.656;2024-01-30T02:37:58;12.23;;;8.10;;
69305;SDS011;56427;51.580;4.656;2024-01-30T02:40:24;12.02;;;7.63;;
69305;SDS011;56427;51.580;4.656;2024-01-30T02:42:49;14.80;;;8.63;;
69305;SDS011;56427;51.580;4.656;2024-01-30T02:45:14;11.10;;;7.70;;
69305;SDS011;56427;51.580;4.656;2024-01-30T02:47:40;13.67;;;8.07;;
69305;SDS011;56427;51.580;4.656;2024-01-30T02:50:05;11.70;;;7.30;;
69305;SDS011;56427;51.580;4.656;2024-01-30T02:52:31;14.23;;;8.03;;
69305;SDS011;56427;51.580;4.656;2024-01-30T02:54:57;14.07;;;7.97;;
69305;SDS011;56427;51.580;4.656;2024-01-30T02:57:22;13.70;;;8.57;;
69305;SDS011;56427;51.580;4.656;2024-01-30T02:59:48;12.67;;;8.17;;
69305;SDS011;56427;51.580;4.656;2024-01-30T03:02:13;15.90;;;7.67;;
69305;SDS011;56427;51.580;4.656;2024-01-30T03:04:40;13.13;;;7.83;;
69305;SDS011;56427;51.580;4.656;2024-01-30T03:07:07;13.20;;;7.47;;
69305;SDS011;56427;51.580;4.656;2024-01-30T03:09:32;11.57;;;7.43;;
69305;SDS011;56427;51.580;4.656;2024-01-30T03:11:58;14.27;;;7.30;;
69305;SDS011;56427;51.580;4.656;2024-01-30T03:14:23;14.80;;;7.60;;
69305;SDS011;56427;51.580;4.656;2024-01-30T03:16:49;14.02;;;7.20;;
69305;SDS011;56427;51.580;4.656;2024-01-30T03:19:14;12.13;;;7.47;;
69305;SDS011;56427;51.580;4.656;2024-01-30T03:21:40;16.50;;;8.40;;
69305;SDS011;56427;51.580;4.656;2024-01-30T03:24:05;13.10;;;7.37;;
69305;SDS011;56427;51.580;4.656;2024-01-30T03:26:30;13.93;;;7.47;;
69305;SDS011;56427;51.580;4.656;2024-01-30T03:28:56;11.18;;;7.25;;
69305;SDS011;56427;51.580;4.656;2024-01-30T03:31:21;12.52;;;7.45;;
69305;SDS011;56427;51.580;4.656;2024-01-30T03:33:47;11.67;;;7.30;;
69305;SDS011;56427;51.580;4.656;2024-01-30T03:36:12;15.17;;;7.87;;
69305;SDS011;56427;51.580;4.656;2024-01-30T03:38:37;13.30;;;7.53;;
69305;SDS011;56427;51.580;4.656;2024-01-30T03:41:03;12.03;;;7.33;;
69305;SDS011;56427;51.580;4.656;2024-01-30T03:43:32;16.88;;;7.68;;
69305;SDS011;56427;51.580;4.656;2024-01-30T03:45:57;10.53;;;6.97;;
69305;SDS011;56427;51.580;4.656;2024-01-30T03:48:23;13.02;;;7.28;;
69305;SDS011;56427;51.580;4.656;2024-01-30T03:50:48;13.83;;;7.73;;
69305;SDS011;56427;51.580;4.656;2024-01-30T03:53:13;11.40;;;6.77;;
69305;SDS011;56427;51.580;4.656;2024-01-30T03:55:39;14.97;;;7.23;;
69305;SDS011;56427;51.580;4.656;2024-01-30T03:58:04;12.20;;;7.13;;
69305;SDS011;56427;51.580;4.656;2024-01-30T04:00:29;13.73;;;7.43;;
69305;SDS011;56427;51.580;4.656;2024-01-30T04:02:55;10.15;;;6.80;;
69305;SDS011;56427;51.580;4.656;2024-01-30T04:05:20;13.47;;;7.50;;
69305;SDS011;56427;51.580;4.656;2024-01-30T04:07:46;13.37;;;7.23;;
69305;SDS011;56427;51.580;4.656;2024-01-30T04:10:11;13.00;;;7.53;;
69305;SDS011;56427;51.580;4.656;2024-01-30T04:12:36;16.47;;;6.93;;
69305;SDS011;56427;51.580;4.656;2024-01-30T04:15:04;12.75;;;7.63;;
69305;SDS011;56427;51.580;4.656;2024-01-30T04:17:30;13.13;;;7.40;;
69305;SDS011;56427;51.580;4.656;2024-01-30T04:19:56;14.70;;;7.85;;
69305;SDS011;56427;51.580;4.656;2024-01-30T04:22:21;12.37;;;6.97;;
69305;SDS011;56427;51.580;4.656;2024-01-30T04:24:47;13.43;;;7.20;;
69305;SDS011;56427;51.580;4.656;2024-01-30T04:27:12;13.52;;;7.05;;
69305;SDS011;56427;51.580;4.656;2024-01-30T04:29:38;11.07;;;7.77;;
69305;SDS011;56427;51.580;4.656;2024-01-30T04:32:04;15.07;;;7.53;;
69305;SDS011;56427;51.580;4.656;2024-01-30T04:34:29;15.30;;;7.25;;
69305;SDS011;56427;51.580;4.656;2024-01-30T04:36:55;12.70;;;7.47;;
69305;SDS011;56427;51.580;4.656;2024-01-30T04:39:21;14.15;;;7.10;;
69305;SDS011;56427;51.580;4.656;2024-01-30T04:41:47;16.27;;;7.57;;
69305;SDS011;56427;51.580;4.656;2024-01-30T04:44:13;11.73;;;7.63;;
69305;SDS011;56427;51.580;4.656;2024-01-30T04:46:38;13.47;;;7.07;;
69305;SDS011;56427;51.580;4.656;2024-01-30T04:49:03;11.43;;;7.20;;
69305;SDS011;56427;51.580;4.656;2024-01-30T04:51:29;11.40;;;7.53;;
69305;SDS011;56427;51.580;4.656;2024-01-30T04:53:54;16.87;;;7.17;;
69305;SDS011;56427;51.580;4.656;2024-01-30T04:56:20;12.60;;;7.22;;
69305;SDS011;56427;51.580;4.656;2024-01-30T04:58:45;14.40;;;7.20;;
69305;SDS011;56427;51.580;4.656;2024-01-30T05:01:14;12.00;;;7.43;;
69305;SDS011;56427;51.580;4.656;2024-01-30T05:03:41;11.63;;;7.07;;
69305;SDS011;56427;51.580;4.656;2024-01-30T05:06:06;14.57;;;8.10;;
69305;SDS011;56427;51.580;4.656;2024-01-30T05:08:31;13.80;;;6.97;;
69305;SDS011;56427;51.580;4.656;2024-01-30T05:11:00;12.50;;;7.57;;
69305;SDS011;56427;51.580;4.656;2024-01-30T05:13:26;15.25;;;8.05;;
69305;SDS011;56427;51.580;4.656;2024-01-30T05:15:52;14.70;;;8.00;;
69305;SDS011;56427;51.580;4.656;2024-01-30T05:18:17;12.10;;;7.20;;
69305;SDS011;56427;51.580;4.656;2024-01-30T05:20:43;12.27;;;7.40;;
69305;SDS011;56427;51.580;4.656;2024-01-30T05:23:08;12.87;;;6.83;;
69305;SDS011;56427;51.580;4.656;2024-01-30T05:25:34;13.65;;;7.10;;
69305;SDS011;56427;51.580;4.656;2024-01-30T05:28:00;10.90;;;7.40;;
69305;SDS011;56427;51.580;4.656;2024-01-30T05:30:25;16.30;;;7.90;;
69305;SDS011;56427;51.580;4.656;2024-01-30T05:32:51;15.13;;;7.47;;
69305;SDS011;56427;51.580;4.656;2024-01-30T05:35:16;15.50;;;7.63;;
69305;SDS011;56427;51.580;4.656;2024-01-30T05:37:41;12.82;;;6.95;;
69305;SDS011;56427;51.580;4.656;2024-01-30T05:40:07;13.30;;;7.07;;
69305;SDS011;56427;51.580;4.656;2024-01-30T05:42:33;12.50;;;6.75;;
69305;SDS011;56427;51.580;4.656;2024-01-30T05:44:58;12.47;;;7.20;;
69305;SDS011;56427;51.580;4.656;2024-01-30T05:47:23;14.77;;;7.23;;
69305;SDS011;56427;51.580;4.656;2024-01-30T05:49:49;12.03;;;6.40;;
69305;SDS011;56427;51.580;4.656;2024-01-30T05:52:14;11.55;;;6.13;;
69305;SDS011;56427;51.580;4.656;2024-01-30T05:54:41;13.30;;;8.57;;
69305;SDS011;56427;51.580;4.656;2024-01-30T05:57:06;12.02;;;7.22;;
69305;SDS011;56427;51.580;4.656;2024-01-30T05:59:32;11.40;;;6.97;;
69305;SDS011;56427;51.580;4.656;2024-01-30T06:01:57;13.23;;;7.20;;
69305;SDS011;56427;51.580;4.656;2024-01-30T06:04:23;13.83;;;6.97;;
69305;SDS011;56427;51.580;4.656;2024-01-30T06:06:49;11.93;;;6.68;;
69305;SDS011;56427;51.580;4.656;2024-01-30T06:09:14;13.10;;;7.45;;
69305;SDS011;56427;51.580;4.656;2024-01-30T06:11:40;13.00;;;7.03;;
69305;SDS011;56427;51.580;4.656;2024-01-30T06:14:06;10.60;;;6.93;;
69305;SDS011;56427;51.580;4.656;2024-01-30T06:16:32;14.20;;;7.37;;
69305;SDS011;56427;51.580;4.656;2024-01-30T06:18:58;13.18;;;7.70;;
69305;SDS011;56427;51.580;4.656;2024-01-30T06:21:24;14.23;;;7.78;;
69305;SDS011;56427;51.580;4.656;2024-01-30T06:23:50;12.97;;;6.90;;
69305;SDS011;56427;51.580;4.656;2024-01-30T06:26:16;15.02;;;7.30;;
69305;SDS011;56427;51.580;4.656;2024-01-30T06:28:41;12.70;;;6.97;;
69305;SDS011;56427;51.580;4.656;2024-01-30T06:31:06;11.50;;;7.00;;
69305;SDS011;56427;51.580;4.656;2024-01-30T06:33:32;11.30;;;6.47;;
69305;SDS011;56427;51.580;4.656;2024-01-30T06:35:57;13.53;;;7.23;;
69305;SDS011;56427;51.580;4.656;2024-01-30T06:38:23;15.13;;;7.53;;
69305;SDS011;56427;51.580;4.656;2024-01-30T06:40:49;12.73;;;7.03;;
69305;SDS011;56427;51.580;4.656;2024-01-30T06:43:14;14.23;;;7.97;;
69305;SDS011;56427;51.580;4.656;2024-01-30T06:45:40;15.48;;;7.47;;
69305;SDS011;56427;51.580;4.656;2024-01-30T06:48:05;13.37;;;6.97;;
69305;SDS011;56427;51.580;4.656;2024-01-30T06:50:32;13.00;;;7.18;;
69305;SDS011;56427;51.580;4.656;2024-01-30T06:52:58;15.53;;;7.07;;
69305;SDS011;56427;51.580;4.656;2024-01-30T06:55:23;13.17;;;7.60;;
69305;SDS011;56427;51.580;4.656;2024-01-30T06:57:49;11.63;;;7.05;;
69305;SDS011;56427;51.580;4.656;2024-01-30T07:00:14;12.10;;;6.80;;
69305;SDS011;56427;51.580;4.656;2024-01-30T07:02:41;13.32;;;7.03;;
69305;SDS011;56427;51.580;4.656;2024-01-30T07:05:06;10.60;;;6.83;;
69305;SDS011;56427;51.580;4.656;2024-01-30T07:07:32;13.88;;;6.88;;
69305;SDS011;56427;51.580;4.656;2024-01-30T07:09:58;14.20;;;6.77;;
69305;SDS011;56427;51.580;4.656;2024-01-30T07:12:24;13.70;;;7.73;;
69305;SDS011;56427;51.580;4.656;2024-01-30T07:14:50;12.25;;;6.47;;
69305;SDS011;56427;51.580;4.656;2024-01-30T07:17:16;15.15;;;7.07;;
69305;SDS011;56427;51.580;4.656;2024-01-30T07:19:42;10.80;;;6.90;;
69305;SDS011;56427;51.580;4.656;2024-01-30T07:22:07;14.57;;;6.50;;
69305;SDS011;56427;51.580;4.656;2024-01-30T07:24:33;13.10;;;6.73;;
69305;SDS011;56427;51.580;4.656;2024-01-30T07:26:59;13.55;;;7.15;;
69305;SDS011;56427;51.580;4.656;2024-01-30T07:29:24;12.83;;;6.90;;
69305;SDS011;56427;51.580;4.656;2024-01-30T07:31:49;14.07;;;6.80;;
69305;SDS011;56427;51.580;4.656;2024-01-30T07:34:15;12.37;;;6.37;;
69305;SDS011;56427;51.580;4.656;2024-01-30T07:36:41;15.18;;;6.65;;
69305;SDS011;56427;51.580;4.656;2024-01-30T07:39:06;12.33;;;7.00;;
69305;SDS011;56427;51.580;4.656;2024-01-30T07:41:32;14.30;;;7.00;;
69305;SDS011;56427;51.580;4.656;2024-01-30T07:43:58;10.70;;;6.38;;
69305;SDS011;56427;51.580;4.656;2024-01-30T07:46:23;17.07;;;6.83;;
69305;SDS011;56427;51.580;4.656;2024-01-30T07:48:48;11.50;;;6.63;;
69305;SDS011;56427;51.580;4.656;2024-01-30T07:51:14;14.07;;;6.60;;
69305;SDS011;56427;51.580;4.656;2024-01-30T07:53:42;15.57;;;7.07;;
69305;SDS011;56427;51.580;4.656;2024-01-30T07:56:08;11.97;;;6.60;;
69305;SDS011;56427;51.580;4.656;2024-01-30T07:58:33;11.07;;;6.10;;
69305;SDS011;56427;51.580;4.656;2024-01-30T08:00:59;12.77;;;6.97;;
69305;SDS011;56427;51.580;4.656;2024-01-30T08:03:25;12.23;;;6.32;;
69305;SDS011;56427;51.580;4.656;2024-01-30T08:05:51;12.53;;;6.33;;
69305;SDS011;56427;51.580;4.656;2024-01-30T08:08:16;11.50;;;5.93;;
69305;SDS011;56427;51.580;4.656;2024-01-30T08:10:42;16.33;;;6.93;;
69305;SDS011;56427;51.580;4.656;2024-01-30T08:13:07;20.57;;;7.30;;
69305;SDS011;56427;51.580;4.656;2024-01-30T08:15:34;13.10;;;6.72;;
69305;SDS011;56427;51.580;4.656;2024-01-30T08:18:00;16.13;;;7.30;;
69305;SDS011;56427;51.580;4.656;2024-01-30T08:20:25;12.20;;;7.05;;
69305;SDS011;56427;51.580;4.656;2024-01-30T08:22:51;15.67;;;7.00;;
69305;SDS011;56427;51.580;4.656;2024-01-30T08:25:16;16.37;;;7.23;;
69305;SDS011;56427;51.580;4.656;2024-01-30T08:27:42;13.03;;;7.17;;
69305;SDS011;56427;51.580;4.656;2024-01-30T08:30:07;17.90;;;7.50;;
69305;SDS011;56427;51.580;4.656;2024-01-30T08:32:34;18.17;;;7.47;;
69305;SDS011;56427;51.580;4.656;2024-01-30T08:34:59;16.13;;;7.17;;
69305;SDS011;56427;51.580;4.656;2024-01-30T08:37:28;17.38;;;6.55;;
69305;SDS011;56427;51.580;4.656;2024-01-30T08:39:54;16.92;;;7.30;;
69305;SDS011;56427;51.580;4.656;2024-01-30T08:42:20;13.53;;;6.93;;
69305;SDS011;56427;51.580;4.656;2024-01-30T08:44:47;15.57;;;7.07;;
69305;SDS011;56427;51.580;4.656;2024-01-30T08:47:17;14.90;;;6.78;;
69305;SDS011;56427;51.580;4.656;2024-01-30T08:49:43;18.90;;;6.57;;
69305;SDS011;56427;51.580;4.656;2024-01-30T08:52:09;24.10;;;7.93;;
69305;SDS011;56427;51.580;4.656;2024-01-30T08:54:35;14.00;;;6.85;;
69305;SDS011;56427;51.580;4.656;2024-01-30T08:57:01;16.47;;;8.07;;
69305;SDS011;56427;51.580;4.656;2024-01-30T08:59:27;12.57;;;7.23;;
69305;SDS011;56427;51.580;4.656;2024-01-30T09:01:52;10.15;;;6.90;;
69305;SDS011;56427;51.580;4.656;2024-01-30T09:04:20;14.70;;;7.20;;
69305;SDS011;56427;51.580;4.656;2024-01-30T09:06:46;15.32;;;7.63;;
69305;SDS011;56427;51.580;4.656;2024-01-30T09:09:12;15.65;;;7.57;;
69305;SDS011;56427;51.580;4.656;2024-01-30T09:11:39;14.60;;;7.70;;
69305;SDS011;56427;51.580;4.656;2024-01-30T09:14:04;14.97;;;7.50;;
69305;SDS011;56427;51.580;4.656;2024-01-30T09:16:30;14.27;;;7.20;;
69305;SDS011;56427;51.580;4.656;2024-01-30T09:18:55;14.70;;;7.67;;
69305;SDS011;56427;51.580;4.656;2024-01-30T09:21:21;18.42;;;8.13;;
69305;SDS011;56427;51.580;4.656;2024-01-30T09:23:46;13.27;;;7.50;;
69305;SDS011;56427;51.580;4.656;2024-01-30T09:26:12;16.00;;;7.97;;
69305;SDS011;56427;51.580;4.656;2024-01-30T09:28:38;15.20;;;7.40;;
69305;SDS011;56427;51.580;4.656;2024-01-30T09:31:03;13.90;;;7.60;;
69305;SDS011;56427;51.580;4.656;2024-01-30T09:33:29;16.30;;;7.95;;
69305;SDS011;56427;51.580;4.656;2024-01-30T09:35:54;14.37;;;7.27;;
69305;SDS011;56427;51.580;4.656;2024-01-30T09:38:20;13.67;;;7.93;;
69305;SDS011;56427;51.580;4.656;2024-01-30T09:40:47;12.38;;;8.32;;
69305;SDS011;56427;51.580;4.656;2024-01-30T09:43:18;16.10;;;8.18;;
69305;SDS011;56427;51.580;4.656;2024-01-30T09:45:48;14.35;;;7.50;;
69305;SDS011;56427;51.580;4.656;2024-01-30T09:48:16;15.15;;;8.23;;
69305;SDS011;56427;51.580;4.656;2024-01-30T09:50:41;17.07;;;8.13;;
69305;SDS011;56427;51.580;4.656;2024-01-30T09:53:10;15.90;;;8.63;;
69305;SDS011;56427;51.580;4.656;2024-01-30T09:55:38;13.48;;;8.48;;
69305;SDS011;56427;51.580;4.656;2024-01-30T09:58:07;15.75;;;8.68;;
69305;SDS011;56427;51.580;4.656;2024-01-30T10:00:33;13.90;;;7.83;;
69305;SDS011;56427;51.580;4.656;2024-01-30T10:02:58;13.57;;;7.50;;
69305;SDS011;56427;51.580;4.656;2024-01-30T10:05:26;20.07;;;9.37;;
69305;SDS011;56427;51.580;4.656;2024-01-30T10:07:53;14.48;;;7.72;;
69305;SDS011;56427;51.580;4.656;2024-01-30T10:10:23;13.93;;;7.55;;
69305;SDS011;56427;51.580;4.656;2024-01-30T10:12:49;13.27;;;7.40;;
69305;SDS011;56427;51.580;4.656;2024-01-30T10:15:15;16.50;;;7.70;;
69305;SDS011;56427;51.580;4.656;2024-01-30T10:17:42;12.50;;;8.43;;
69305;SDS011;56427;51.580;4.656;2024-01-30T10:20:07;15.77;;;8.47;;
69305;SDS011;56427;51.580;4.656;2024-01-30T10:22:33;16.53;;;7.70;;
69305;SDS011;56427;51.580;4.656;2024-01-30T10:24:59;12.48;;;6.60;;
69305;SDS011;56427;51.580;4.656;2024-01-30T10:27:26;12.00;;;6.13;;
69305;SDS011;56427;51.580;4.656;2024-01-30T10:29:52;8.23;;;5.05;;
69305;SDS011;56427;51.580;4.656;2024-01-30T10:32:17;10.30;;;5.85;;
69305;SDS011;56427;51.580;4.656;2024-01-30T10:34:44;6.93;;;4.50;;
69305;SDS011;56427;51.580;4.656;2024-01-30T10:37:10;9.95;;;5.20;;
69305;SDS011;56427;51.580;4.656;2024-01-30T10:39:38;14.45;;;5.20;;
69305;SDS011;56427;51.580;4.656;2024-01-30T10:42:05;9.30;;;5.03;;
69305;SDS011;56427;51.580;4.656;2024-01-30T10:44:39;10.23;;;5.18;;
69305;SDS011;56427;51.580;4.656;2024-01-30T10:47:29;10.52;;;4.22;;
69305;SDS011;56427;51.580;4.656;2024-01-30T10:49:54;9.73;;;3.40;;
69305;SDS011;56427;51.580;4.656;2024-01-30T10:52:21;7.13;;;2.88;;
69305;SDS011;56427;51.580;4.656;2024-01-30T10:54:50;6.30;;;1.80;;
69305;SDS011;56427;51.580;4.656;2024-01-30T10:57:17;8.77;;;2.65;;
69305;SDS011;56427;51.580;4.656;2024-01-30T10:59:43;10.03;;;2.20;;
69305;SDS011;56427;51.580;4.656;2024-01-30T11:02:09;6.40;;;1.70;;
69305;SDS011;56427;51.580;4.656;2024-01-30T11:04:37;12.15;;;2.25;;
69305;SDS011;56427;51.580;4.656;2024-01-30T11:07:13;6.65;;;1.70;;
69305;SDS011;56427;51.580;4.656;2024-01-30T11:09:40;6.70;;;1.80;;
69305;SDS011;56427;51.580;4.656;2024-01-30T11:12:12;6.47;;;1.97;;
69305;SDS011;56427;51.580;4.656;2024-01-30T11:14:37;6.80;;;1.80;;
69305;SDS011;56427;51.580;4.656;2024-01-30T11:17:05;6.25;;;1.80;;
69305;SDS011;56427;51.580;4.656;2024-01-30T11:19:31;9.60;;;2.17;;
69305;SDS011;56427;51.580;4.656;2024-01-30T11:21:57;5.22;;;2.00;;
69305;SDS011;56427;51.580;4.656;2024-01-30T11:24:23;7.40;;;1.73;;
69305;SDS011;56427;51.580;4.656;2024-01-30T11:26:49;9.32;;;1.90;;
69305;SDS011;56427;51.580;4.656;2024-01-30T11:29:20;6.47;;;1.63;;
69305;SDS011;56427;51.580;4.656;2024-01-30T11:31:53;8.82;;;1.73;;
69305;SDS011;56427;51.580;4.656;2024-01-30T11:34:22;4.72;;;1.10;;
69305;SDS011;56427;51.580;4.656;2024-01-30T11:36:51;6.78;;;1.58;;
69305;SDS011;56427;51.580;4.656;2024-01-30T11:39:23;4.90;;;1.03;;
69305;SDS011;56427;51.580;4.656;2024-01-30T11:41:50;7.22;;;1.45;;
69305;SDS011;56427;51.580;4.656;2024-01-30T11:44:17;5.47;;;1.23;;
69305;SDS011;56427;51.580;4.656;2024-01-30T11:46:43;4.32;;;1.00;;
69305;SDS011;56427;51.580;4.656;2024-01-30T11:49:09;5.80;;;1.30;;
69305;SDS011;56427;51.580;4.656;2024-01-30T11:51:35;8.10;;;2.53;;
69305;SDS011;56427;51.580;4.656;2024-01-30T11:54:00;5.83;;;1.00;;
69305;SDS011;56427;51.580;4.656;2024-01-30T11:56:26;4.28;;;1.08;;
69305;SDS011;56427;51.580;4.656;2024-01-30T11:58:52;3.27;;;0.90;;
69305;SDS011;56427;51.580;4.656;2024-01-30T12:01:17;4.78;;;1.00;;
69305;SDS011;56427;51.580;4.656;2024-01-30T12:03:43;3.20;;;0.70;;
69305;SDS011;56427;51.580;4.656;2024-01-30T12:06:15;3.08;;;1.05;;
69305;SDS011;56427;51.580;4.656;2024-01-30T12:08:41;3.65;;;1.83;;
69305;SDS011;56427;51.580;4.656;2024-01-30T12:11:07;4.75;;;1.00;;
69305;SDS011;56427;51.580;4.656;2024-01-30T12:13:32;5.53;;;0.90;;
69305;SDS011;56427;51.580;4.656;2024-01-30T12:15:58;3.50;;;0.90;;
69305;SDS011;56427;51.580;4.656;2024-01-30T12:18:24;5.18;;;1.20;;
69305;SDS011;56427;51.580;4.656;2024-01-30T12:20:59;2.90;;;0.90;;
69305;SDS011;56427;51.580;4.656;2024-01-30T12:23:25;3.78;;;1.20;;
69305;SDS011;56427;51.580;4.656;2024-01-30T12:25:52;5.05;;;1.20;;
69305;SDS011;56427;51.580;4.656;2024-01-30T12:28:17;4.17;;;1.30;;
69305;SDS011;56427;51.580;4.656;2024-01-30T12:30:43;6.10;;;1.67;;
69305;SDS011;56427;51.580;4.656;2024-01-30T12:33:08;5.70;;;1.40;;
69305;SDS011;56427;51.580;4.656;2024-01-30T12:35:35;8.70;;;1.92;;
69305;SDS011;56427;51.580;4.656;2024-01-30T12:38:01;7.63;;;2.60;;
69305;SDS011;56427;51.580;4.656;2024-01-30T12:40:27;7.97;;;3.10;;
69305;SDS011;56427;51.580;4.656;2024-01-30T12:42:53;12.13;;;2.70;;
69305;SDS011;56427;51.580;4.656;2024-01-30T12:45:19;12.17;;;3.00;;
69305;SDS011;56427;51.580;4.656;2024-01-30T12:47:46;11.23;;;3.15;;
69305;SDS011;56427;51.580;4.656;2024-01-30T12:50:13;12.98;;;3.67;;
69305;SDS011;56427;51.580;4.656;2024-01-30T12:52:41;12.10;;;3.50;;
69305;SDS011;56427;51.580;4.656;2024-01-30T12:55:07;5.80;;;2.60;;
69305;SDS011;56427;51.580;4.656;2024-01-30T12:57:32;13.40;;;3.47;;
69305;SDS011;56427;51.580;4.656;2024-01-30T12:59:58;10.70;;;2.87;;
69305;SDS011;56427;51.580;4.656;2024-01-30T13:02:23;10.07;;;3.00;;
69305;SDS011;56427;51.580;4.656;2024-01-30T13:04:49;9.23;;;2.83;;
69305;SDS011;56427;51.580;4.656;2024-01-30T13:07:15;6.70;;;2.63;;
69305;SDS011;56427;51.580;4.656;2024-01-30T13:09:40;12.47;;;2.67;;
69305;SDS011;56427;51.580;4.656;2024-01-30T13:12:06;10.35;;;3.03;;
69305;SDS011;56427;51.580;4.656;2024-01-30T13:14:32;8.73;;;2.80;;
69305;SDS011;56427;51.580;4.656;2024-01-30T13:16:57;9.57;;;3.03;;
69305;SDS011;56427;51.580;4.656;2024-01-30T13:19:23;15.23;;;2.50;;
69305;SDS011;56427;51.580;4.656;2024-01-30T13:21:48;13.47;;;2.77;;
69305;SDS011;56427;51.580;4.656;2024-01-30T13:24:14;9.05;;;3.17;;
69305;SDS011;56427;51.580;4.656;2024-01-30T13:26:39;10.77;;;3.20;;
69305;SDS011;56427;51.580;4.656;2024-01-30T13:29:05;14.48;;;3.50;;
69305;SDS011;56427;51.580;4.656;2024-01-30T13:31:31;8.03;;;3.10;;
69305;SDS011;56427;51.580;4.656;2024-01-30T13:33:56;8.87;;;2.83;;
69305;SDS011;56427;51.580;4.656;2024-01-30T13:36:22;10.80;;;3.13;;
69305;SDS011;56427;51.580;4.656;2024-01-30T13:38:48;8.75;;;2.85;;
69305;SDS011;56427;51.580;4.656;2024-01-30T13:41:13;7.70;;;3.20;;
69305;SDS011;56427;51.580;4.656;2024-01-30T13:43:39;7.83;;;3.57;;
69305;SDS011;56427;51.580;4.656;2024-01-30T13:46:04;8.97;;;2.90;;
69305;SDS011;56427;51.580;4.656;2024-01-30T13:48:30;10.27;;;3.13;;
69305;SDS011;56427;51.580;4.656;2024-01-30T13:50:57;6.60;;;3.30;;
69305;SDS011;56427;51.580;4.656;2024-01-30T13:53:23;8.15;;;3.85;;
69305;SDS011;56427;51.580;4.656;2024-01-30T13:55:48;7.70;;;3.77;;
69305;SDS011;56427;51.580;4.656;2024-01-30T13:58:14;7.72;;;4.10;;
69305;SDS011;56427;51.580;4.656;2024-01-30T14:00:39;9.00;;;4.07;;
69305;SDS011;56427;51.580;4.656;2024-01-30T14:03:05;7.95;;;4.25;;
69305;SDS011;56427;51.580;4.656;2024-01-30T14:05:30;7.07;;;3.50;;
69305;SDS011;56427;51.580;4.656;2024-01-30T14:07:56;6.87;;;3.67;;
69305;SDS011;56427;51.580;4.656;2024-01-30T14:10:23;6.72;;;2.83;;
69305;SDS011;56427;51.580;4.656;2024-01-30T14:12:49;6.90;;;2.53;;
69305;SDS011;56427;51.580;4.656;2024-01-30T14:15:14;10.15;;;3.08;;
69305;SDS011;56427;51.580;4.656;2024-01-30T14:17:40;6.67;;;2.77;;
69305;SDS011;56427;51.580;4.656;2024-01-30T14:20:06;11.15;;;4.03;;
69305;SDS011;56427;51.580;4.656;2024-01-30T14:22:33;10.77;;;3.90;;
69305;SDS011;56427;51.580;4.656;2024-01-30T14:25:00;13.18;;;4.60;;
69305;SDS011;56427;51.580;4.656;2024-01-30T14:27:28;9.47;;;4.80;;
69305;SDS011;56427;51.580;4.656;2024-01-30T14:29:53;12.23;;;5.97;;
69305;SDS011;56427;51.580;4.656;2024-01-30T14:32:18;11.80;;;5.85;;